Time;durP1;ratioP1;P1;durP2;ratioP2;P2;SDS_P1;SDS_P2;PMS_P1;PMS_P2;Temp;Humidity;BMP_temperature;BMP_pressure;BME280_temperature;BME280_humidity;BME280_pressure;Samples;Min_cycle;Max_cycle;Signal;HPM_P1;HPM_P2
2022/12/26 00:01:10;;;;;;;0.85;0.85;;;;;;;12.09;62.47;100417.59;4252329;33;32185;-89
2022/12/26 00:03:38;;;;;;;0.28;0.28;;;;;;;12.18;62.02;100418.09;4254307;33;33375;-89
2022/12/26 00:06:14;;;;;;;0.32;0.32;;;;;;;12.26;61.72;100412.50;4255474;33;33649;-89
2022/12/26 00:08:43;;;;;;;1.17;0.70;;;;;;;12.02;62.72;100428.44;4256029;33;33380;-89
2022/12/26 00:11:11;;;;;;;0.90;0.90;;;;;;;12.02;62.77;100417.00;4268559;33;33904;-88
2022/12/26 00:13:40;;;;;;;1.73;1.15;;;;;;;12.24;62.05;100417.81;4253793;33;33236;-89
2022/12/26 00:16:14;;;;;;;0.90;0.90;;;;;;;12.28;61.96;100407.97;4253485;33;34479;-88
2022/12/26 00:18:43;;;;;;;3.37;3.05;;;;;;;12.40;61.53;100422.53;4255807;33;32839;-88
2022/12/26 00:21:13;;;;;;;19.12;1.08;;;;;;;12.61;60.82;100418.09;4249767;33;32754;-88
2022/12/26 00:23:41;;;;;;;2.22;1.55;;;;;;;12.57;60.64;100417.34;4266518;33;33664;-89
2022/12/26 00:26:11;;;;;;;1.58;1.50;;;;;;;12.57;60.56;100414.72;4254988;33;33090;-90
2022/12/26 00:28:40;;;;;;;0.82;0.82;;;;;;;12.32;61.29;100409.59;4255039;33;32509;-89
2022/12/26 00:31:11;;;;;;;3.53;1.85;;;;;;;12.32;61.46;100406.94;4256206;33;33308;-90
2022/12/26 00:33:39;;;;;;;4.87;1.20;;;;;;;12.39;60.98;100403.13;4254516;33;33414;-88
2022/12/26 00:36:13;;;;;;;1.17;1.08;;;;;;;12.43;60.98;100407.34;4256043;33;32113;-87
2022/12/26 00:38:42;;;;;;;1.70;1.55;;;;;;;12.73;59.89;100405.22;4254199;33;33424;-88
2022/12/26 00:41:10;;;;;;;0.00;0.00;;;;;;;12.46;60.55;100404.56;4256316;33;33468;-88
2022/12/26 00:43:38;;;;;;;1.05;0.95;;;;;;;12.20;61.49;100420.66;4268422;33;34755;-89
2022/12/26 00:46:07;;;;;;;1.05;1.05;;;;;;;12.26;61.33;100409.84;4256633;33;34115;-89
2022/12/26 00:48:35;;;;;;;1.33;1.30;;;;;;;12.57;60.25;100412.91;4254655;33;32732;-88
2022/12/26 00:51:03;;;;;;;0.62;0.62;;;;;;;12.52;60.31;100406.97;4255667;33;34067;-88
2022/12/26 00:53:31;;;;;;;1.20;1.10;;;;;;;12.43;60.39;100419.72;4265794;33;34404;-88
2022/12/26 00:55:59;;;;;;;1.77;1.30;;;;;;;12.29;60.83;100417.63;4255558;33;32740;-87
2022/12/26 00:58:28;;;;;;;6.93;3.20;;;;;;;12.12;61.21;100426.28;4256189;33;33314;-88
2022/12/26 01:01:29;;;;;;;1.15;1.15;;;;;;;12.18;60.95;100426.03;4255459;33;34432;-87
2022/12/26 01:03:58;;;;;;;0.90;0.90;;;;;;;12.23;60.85;100420.56;4251151;33;33871;-87
2022/12/26 01:06:26;;;;;;;3.50;1.25;;;;;;;12.41;60.09;100411.00;4254386;33;33455;-89
2022/12/26 01:08:53;;;;;;;0.20;0.20;;;;;;;12.32;60.21;100406.94;4253679;33;34240;-89
2022/12/26 01:11:39;;;;;;;1.35;1.30;;;;;;;12.18;60.73;100409.28;4243060;33;33752;-89
2022/12/26 01:14:13;;;;;;;1.87;1.77;;;;;;;12.26;60.48;100417.78;4255773;33;33631;-89
2022/12/26 01:16:42;;;;;;;0.62;0.62;;;;;;;12.05;61.07;100406.25;4254817;33;33086;-89
2022/12/26 01:19:11;;;;;;;1.33;1.23;;;;;;;12.14;60.87;100410.34;4249474;33;33580;-87
2022/12/26 01:21:40;;;;;;;0.62;0.62;;;;;;;12.02;61.10;100409.91;4253884;33;34721;-88
2022/12/26 01:24:08;;;;;;;0.40;0.40;;;;;;;12.00;61.09;100410.88;4253123;33;33785;-88
2022/12/26 01:26:36;;;;;;;3.15;1.65;;;;;;;11.87;61.25;100407.88;4254323;33;34571;-88
2022/12/26 01:29:04;;;;;;;0.75;0.75;;;;;;;12.25;60.17;100400.19;4248207;33;34138;-87
2022/12/26 01:31:31;;;;;;;1.77;1.35;;;;;;;12.21;60.21;100390.63;4267798;33;34429;-87
2022/12/26 01:34:00;;;;;;;2.55;2.35;;;;;;;12.17;60.37;100391.69;4265638;33;34014;-87
2022/12/26 01:36:27;;;;;;;0.90;0.90;;;;;;;12.04;60.69;100393.97;4267878;33;33408;-87
2022/12/26 01:38:55;;;;;;;1.87;1.25;;;;;;;11.91;61.19;100382.13;4254528;33;32463;-87
2022/12/26 01:41:23;;;;;;;9.43;1.75;;;;;;;11.80;61.43;100386.03;4254886;33;33884;-87
2022/12/26 01:43:52;;;;;;;1.60;1.50;;;;;;;11.52;62.18;100386.25;4268733;33;33940;-88
2022/12/26 01:46:25;;;;;;;0.47;0.47;;;;;;;11.50;62.38;100390.75;4265923;33;33985;-88
2022/12/26 01:48:55;;;;;;;1.17;0.62;;;;;;;11.44;62.50;100379.50;4256721;33;32964;-88
2022/12/26 01:51:24;;;;;;;1.60;1.50;;;;;;;11.52;62.34;100373.03;4264415;33;34260;-88
2022/12/26 01:53:55;;;;;;;0.85;0.85;;;;;;;11.29;62.99;100376.53;4252729;33;34198;-88
2022/12/26 01:56:44;;;;;;;2.12;2.00;;;;;;;11.21;63.35;100380.41;4258881;33;33697;-87
2022/12/26 01:59:18;;;;;;;3.12;2.40;;;;;;;11.27;63.07;100374.88;4266428;33;34305;-87
2022/12/26 02:01:48;;;;;;;6.35;1.70;;;;;;;11.13;63.63;100366.59;4243742;33;33451;-87
2022/12/26 02:07:19;;;;;;;3.80;0.85;;;;;;;11.33;62.81;100364.06;4231596;33;34107;-91
2022/12/26 02:09:46;;;;;;;1.95;1.45;;;;;;;11.23;62.74;100363.56;4253006;33;32282;-91
2022/12/26 02:12:20;;;;;;;2.20;1.92;;;;;;;11.25;62.87;100374.94;4248862;33;33586;-91
2022/12/26 02:15:12;;;;;;;2.70;2.50;;;;;;;10.99;63.58;100372.37;4254055;33;34157;-91
2022/12/26 02:17:40;;;;;;;1.83;1.70;;;;;;;10.76;64.42;100365.28;4254007;33;34353;-91
2022/12/26 02:20:11;;;;;;;1.42;1.23;;;;;;;10.66;64.92;100371.81;4237153;33;32004;-90
2022/12/26 02:22:50;;;;;;;3.30;2.15;;;;;;;10.69;64.74;100374.34;4262769;33;34566;-89
2022/12/26 02:25:30;;;;;;;4.32;3.22;;;;;;;11.00;63.58;100363.53;4258529;33;32906;-89
2022/12/26 02:28:15;;;;;;;4.53;2.65;;;;;;;10.72;64.74;100361.00;4260046;33;32846;-89
2022/12/26 02:30:50;;;;;;;2.17;2.03;;;;;;;10.27;66.37;100374.91;4254285;33;33122;-89
2022/12/26 02:33:21;;;;;;;2.78;2.47;;;;;;;10.54;65.53;100372.22;4264041;33;34100;-89
2022/12/26 02:36:14;;;;;;;2.10;1.60;;;;;;;10.63;65.18;100371.91;4266226;33;34162;-90
2022/12/26 02:38:57;;;;;;;1.85;1.75;;;;;;;10.46;65.36;100370.72;4265489;33;32949;-89
2022/12/26 02:41:30;;;;;;;4.47;3.85;;;;;;;10.36;65.47;100355.25;4257637;33;33485;-88
2022/12/26 02:47:25;;;;;;;9.40;4.12;;;;;;;10.52;64.77;100348.53;4232340;33;32561;-87
2022/12/26 03:14:19;;;;;;;4.85;1.95;;;;;;;10.44;64.74;100338.25;4266914;33;33582;-88
2022/12/26 03:19:56;;;;;;;3.90;1.02;;;;;;;10.34;64.66;100342.09;4256981;33;33519;-87
2022/12/26 03:22:30;;;;;;;2.67;2.47;;;;;;;10.27;65.08;100332.66;4255969;33;33010;-87
2022/12/26 03:27:57;;;;;;;2.97;2.67;;;;;;;10.35;64.26;100330.62;4255859;33;32322;-86
2022/12/26 03:35:58;;;;;;;2.80;2.33;;;;;;;9.84;65.43;100338.47;4243171;33;33807;-87
2022/12/26 03:38:34;;;;;;;1.65;1.55;;;;;;;9.90;65.55;100348.81;4262936;33;32671;-87
2022/12/26 04:19:22;;;;;;;2.12;1.85;;;;;;;10.10;65.47;100356.06;4259364;33;33824;-88
2022/12/26 04:19:59;;;;;;;1.23;1.02;;;;;;;9.68;66.47;100359.16;4265319;33;34150;-87
2022/12/26 04:45:27;;;;;;;1.37;1.27;;;;;;;9.35;66.34;100377.75;4256061;33;34679;-88
2022/12/26 04:50:50;;;;;;;0.82;0.82;;;;;;;9.27;66.83;100370.97;4253099;33;33103;-87
2022/12/26 04:53:19;;;;;;;0.88;0.88;;;;;;;9.49;66.02;100357.12;4257395;33;32527;-88
2022/12/26 04:55:47;;;;;;;2.05;1.83;;;;;;;9.46;65.95;100351.94;4253490;33;33164;-87
2022/12/26 04:58:16;;;;;;;0.85;0.73;;;;;;;9.48;65.25;100362.41;4252508;33;33573;-87
2022/12/26 05:00:44;;;;;;;1.05;0.95;;;;;;;9.29;65.53;100367.38;4254515;33;33648;-87
2022/12/26 05:11:34;;;;;;;1.20;1.10;;;;;;;8.98;65.86;100359.50;4256729;33;34521;-88
2022/12/26 05:14:02;;;;;;;2.08;1.92;;;;;;;9.09;65.47;100359.19;4254460;33;34530;-87
2022/12/26 05:30:28;;;;;;;1.37;1.27;;;;;;;9.14;66.29;100358.16;4255771;33;33278;-88
2022/12/26 05:35:42;;;;;;;1.95;1.62;;;;;;;9.01;66.57;100366.44;4239236;33;226180;-88
2022/12/26 05:38:10;;;;;;;3.92;1.70;;;;;;;9.11;66.81;100357.34;4266113;33;34868;-88
2022/12/26 05:40:38;;;;;;;1.75;1.65;;;;;;;9.14;67.01;100359.91;4253901;33;33899;-88
2022/12/26 05:43:06;;;;;;;2.62;2.42;;;;;;;9.22;66.64;100355.31;4253910;33;34193;-87
2022/12/26 05:45:34;;;;;;;1.67;1.58;;;;;;;9.02;67.40;100357.62;4265859;33;33746;-87
2022/12/26 05:48:02;;;;;;;1.30;1.23;;;;;;;9.13;67.38;100348.53;4242331;33;33440;-87
2022/12/26 05:50:30;;;;;;;2.80;2.60;;;;;;;9.21;67.04;100345.69;4253193;33;33328;-86
2022/12/26 05:52:58;;;;;;;3.60;3.33;;;;;;;9.29;66.53;100348.94;4253561;33;33944;-86
2022/12/26 05:55:26;;;;;;;1.50;1.40;;;;;;;9.05;67.23;100357.53;4255368;33;34231;-86
2022/12/26 05:57:55;;;;;;;1.48;1.37;;;;;;;9.14;66.77;100355.50;4264105;33;34188;-86
2022/12/26 06:00:23;;;;;;;2.00;1.20;;;;;;;9.18;66.54;100364.19;4253331;33;33359;-86
2022/12/26 06:02:51;;;;;;;3.25;2.95;;;;;;;9.25;66.32;100363.09;4267061;33;33985;-86
2022/12/26 06:05:18;;;;;;;3.12;2.92;;;;;;;9.44;65.17;100361.63;4253252;33;34671;-86
2022/12/26 06:07:46;;;;;;;1.40;1.30;;;;;;;9.28;65.57;100363.00;4253365;33;32853;-89
2022/12/26 06:10:14;;;;;;;1.58;1.48;;;;;;;9.27;65.35;100358.66;4255426;33;32625;-89
2022/12/26 06:12:42;;;;;;;2.85;2.65;;;;;;;9.20;64.79;100360.59;4253768;33;33158;-88
2022/12/26 06:15:11;;;;;;;1.60;1.10;;;;;;;9.22;64.77;100355.31;4253475;33;34440;-88
2022/12/26 06:17:39;;;;;;;2.25;2.15;;;;;;;9.13;64.72;100352.94;4255276;33;34922;-88
2022/12/26 06:20:07;;;;;;;2.60;2.40;;;;;;;8.66;65.92;100357.75;4239411;33;32597;-87
2022/12/26 06:22:35;;;;;;;1.95;1.85;;;;;;;8.72;65.49;100349.69;4255708;33;32744;-88
2022/12/26 06:25:03;;;;;;;4.50;4.07;;;;;;;8.50;65.62;100348.50;4254047;33;33924;-88
2022/12/26 06:27:31;;;;;;;3.30;3.05;;;;;;;8.71;65.37;100342.69;4253453;33;33112;-88
2022/12/26 06:29:59;;;;;;;3.35;3.05;;;;;;;8.74;65.07;100353.16;4240751;33;32837;-88
2022/12/26 06:32:27;;;;;;;12.30;3.65;;;;;;;8.57;65.37;100342.19;4264637;33;33945;-89
2022/12/26 06:34:55;;;;;;;2.47;1.73;;;;;;;8.55;65.10;100344.03;4263498;33;33489;-88
2022/12/26 06:37:22;;;;;;;3.10;2.80;;;;;;;8.62;64.83;100343.78;4248678;33;33675;-88
2022/12/26 06:39:50;;;;;;;4.03;3.67;;;;;;;8.85;63.77;100344.94;4249980;33;32960;-88
2022/12/26 06:42:18;;;;;;;7.00;3.03;;;;;;;8.62;64.09;100353.47;4236136;33;33058;-87
2022/12/26 06:44:45;;;;;;;1.90;1.80;;;;;;;8.54;64.63;100355.44;4262134;33;34325;-87
2022/12/26 06:47:13;;;;;;;3.62;3.30;;;;;;;8.49;64.75;100346.78;4239139;33;33250;-87
2022/12/26 06:49:41;;;;;;;3.33;2.67;;;;;;;8.59;64.41;100341.28;4250860;33;32624;-87
2022/12/26 06:52:09;;;;;;;10.63;2.40;;;;;;;8.57;64.33;100344.84;4235283;33;33087;-87
2022/12/26 06:54:38;;;;;;;2.33;2.22;;;;;;;8.84;63.22;100351.97;4236527;33;32780;-87
2022/12/26 06:57:06;;;;;;;1.85;1.75;;;;;;;8.60;63.42;100348.25;4261151;33;33696;-87
2022/12/26 06:59:33;;;;;;;4.53;1.90;;;;;;;8.49;64.17;100346.78;4260030;33;32623;-86
2022/12/26 07:02:01;;;;;;;2.85;2.65;;;;;;;8.33;64.42;100347.16;4259604;33;33736;-86
2022/12/26 07:04:29;;;;;;;3.67;3.37;;;;;;;8.38;64.64;100353.22;4242048;33;33071;-86
2022/12/26 07:06:57;;;;;;;4.65;2.95;;;;;;;8.55;64.25;100338.75;4247345;33;33853;-86
2022/12/26 07:09:25;;;;;;;2.22;2.03;;;;;;;8.74;63.20;100341.75;4249008;33;32061;-86
2022/12/26 07:12:00;;;;;;;4.60;4.20;;;;;;;8.51;64.13;100347.62;4260988;33;33713;-86
2022/12/26 07:14:28;;;;;;;1.45;1.35;;;;;;;8.50;64.29;100359.03;4248540;33;33896;-86
2022/12/26 07:16:55;;;;;;;2.30;2.10;;;;;;;8.56;64.21;100369.44;4247227;33;33453;-86
2022/12/26 07:19:23;;;;;;;2.10;2.00;;;;;;;8.53;64.93;100374.78;4242261;33;33922;-86
2022/12/26 07:21:51;;;;;;;1.73;1.62;;;;;;;8.70;63.96;100367.28;4235750;33;32835;-85
2022/12/26 07:24:20;;;;;;;1.75;1.65;;;;;;;8.45;65.17;100378.47;4242571;33;34713;-86
2022/12/26 07:26:48;;;;;;;4.72;4.15;;;;;;;8.83;64.05;100376.59;4259987;33;31720;-86
2022/12/26 07:29:17;;;;;;;2.67;2.47;;;;;;;8.58;64.99;100375.50;4244957;33;32135;-86
2022/12/26 07:31:44;;;;;;;3.12;1.50;;;;;;;8.71;64.73;100375.16;4246561;33;32632;-87
2022/12/26 07:34:12;;;;;;;1.27;1.20;;;;;;;8.57;65.66;100377.28;4245068;33;33977;-86
2022/12/26 07:36:43;;;;;;;5.50;2.65;;;;;;;8.64;65.38;100381.50;4239636;33;33714;-86
2022/12/26 07:39:12;;;;;;;0.93;0.93;;;;;;;8.68;65.25;100379.63;4249513;33;33383;-86
2022/12/26 07:41:59;;;;;;;1.05;0.93;;;;;;;8.85;64.60;100377.41;4231902;33;32862;-87
2022/12/26 07:44:29;;;;;;;3.53;2.28;;;;;;;8.69;65.42;100390.13;4239292;33;33845;-87
2022/12/26 07:47:00;;;;;;;5.45;4.57;;;;;;;9.14;63.86;100383.63;4246818;33;33528;-88
2022/12/26 07:49:28;;;;;;;5.37;2.75;;;;;;;8.98;64.38;100381.44;4243015;33;33620;-87
2022/12/26 07:51:56;;;;;;;2.97;2.72;;;;;;;8.58;66.11;100378.12;4242924;33;33552;-87
2022/12/26 07:54:27;;;;;;;4.03;3.62;;;;;;;8.92;65.44;100389.47;4253843;33;33808;-87
2022/12/26 07:56:55;;;;;;;1.20;1.20;;;;;;;8.97;64.88;100390.25;4243233;33;33905;-86
2022/12/26 07:59:43;;;;;;;5.10;4.70;;;;;;;8.91;65.45;100392.16;4257255;33;32912;-86
2022/12/26 08:02:13;;;;;;;0.98;0.98;;;;;;;9.17;64.34;100399.37;4242752;33;34026;-86
2022/12/26 08:04:42;;;;;;;1.80;1.70;;;;;;;8.72;65.79;100402.34;4243282;33;33957;-86
2022/12/26 08:07:11;;;;;;;3.03;2.20;;;;;;;8.87;65.60;100396.66;4241574;33;34467;-86
2022/12/26 08:09:41;;;;;;;2.40;2.20;;;;;;;8.84;66.08;100399.37;4242753;33;32911;-86
2022/12/26 08:12:10;;;;;;;2.97;1.50;;;;;;;8.88;66.28;100394.91;4241688;33;33124;-86
2022/12/26 08:14:39;;;;;;;1.52;1.42;;;;;;;9.29;64.81;100393.72;4250747;33;35279;-85
2022/12/26 08:17:06;;;;;;;2.28;2.12;;;;;;;9.10;64.88;100388.12;4242159;33;32689;-86
2022/12/26 08:19:38;;;;;;;2.75;1.62;;;;;;;8.92;66.31;100394.75;4240547;33;30343;-86
2022/12/26 08:22:06;;;;;;;8.45;3.87;;;;;;;9.05;65.58;100394.44;4240908;33;33182;-86
2022/12/26 08:24:34;;;;;;;1.80;1.70;;;;;;;9.02;66.32;100398.03;4245980;33;33994;-86
2022/12/26 08:27:03;;;;;;;2.65;2.37;;;;;;;9.34;65.09;100406.78;4228619;33;35105;-86
2022/12/26 08:29:31;;;;;;;5.55;4.07;;;;;;;9.29;65.41;100406.91;4248289;33;34687;-86
2022/12/26 08:31:59;;;;;;;4.20;3.83;;;;;;;9.32;65.59;100404.19;4243910;33;33403;-84
2022/12/26 08:34:32;;;;;;;1.42;1.33;;;;;;;9.32;65.75;100405.97;4232983;33;33287;-86
2022/12/26 08:37:00;;;;;;;3.62;2.92;;;;;;;9.10;66.38;100409.19;4245957;33;34051;-85
2022/12/26 08:39:28;;;;;;;6.68;4.20;;;;;;;9.17;66.79;100404.62;4246802;33;32169;-85
2022/12/26 08:41:56;;;;;;;7.10;5.00;;;;;;;9.26;66.32;100414.91;4261716;33;33908;-88
2022/12/26 08:44:23;;;;;;;8.50;3.15;;;;;;;9.42;65.70;100408.28;4235336;33;32276;-84
2022/12/26 08:46:54;;;;;;;2.20;2.10;;;;;;;9.18;66.19;100415.12;4243417;33;30932;-84
2022/12/26 08:49:21;;;;;;;4.00;2.72;;;;;;;8.95;67.63;100415.75;4263770;33;32965;-85
2022/12/26 08:51:49;;;;;;;2.08;1.98;;;;;;;9.18;67.53;100411.62;4247143;33;33701;-85
2022/12/26 08:54:17;;;;;;;6.87;2.45;;;;;;;9.43;66.93;100402.09;4246408;33;34898;-85
2022/12/26 08:56:45;;;;;;;5.03;4.07;;;;;;;9.32;66.81;100405.97;4247602;33;33535;-85
2022/12/26 08:59:13;;;;;;;3.45;3.20;;;;;;;9.46;67.17;100409.06;4261233;33;32502;-84
2022/12/26 09:01:41;;;;;;;2.12;1.95;;;;;;;9.55;67.05;100406.16;4257469;33;34095;-85
2022/12/26 09:04:08;;;;;;;3.58;3.37;;;;;;;9.47;67.17;100403.72;4264394;33;34191;-84
2022/12/26 09:06:38;;;;;;;3.15;2.85;;;;;;;9.74;66.85;100414.38;4251557;33;33779;-86
2022/12/26 09:09:07;;;;;;;4.10;3.00;;;;;;;9.87;66.74;100413.06;4254777;33;34378;-83
2022/12/26 09:11:34;;;;;;;2.53;2.42;;;;;;;9.79;66.89;100415.09;4266093;33;33519;-84
2022/12/26 09:14:03;;;;;;;4.00;1.98;;;;;;;10.05;66.50;100421.31;4249071;33;32586;-85
2022/12/26 09:16:35;;;;;;;4.25;3.05;;;;;;;10.24;65.63;100422.50;4256013;33;33659;-84
2022/12/26 09:19:11;;;;;;;3.53;2.28;;;;;;;10.03;66.55;100434.56;4255819;33;33609;-85
2022/12/26 09:21:39;;;;;;;1.70;1.60;;;;;;;10.27;66.49;100432.09;4266420;33;33971;-85
2022/12/26 09:24:11;;;;;;;2.62;2.42;;;;;;;10.52;65.35;100423.31;4266127;33;34279;-84
2022/12/26 09:26:40;;;;;;;2.80;2.45;;;;;;;10.37;66.19;100428.25;4254636;33;33661;-85
2022/12/26 09:29:10;;;;;;;2.28;2.17;;;;;;;10.43;66.14;100428.03;4267960;33;34000;-85
2022/12/26 09:31:39;;;;;;;2.20;2.03;;;;;;;10.51;66.39;100424.22;4252752;33;32918;-85
2022/12/26 09:34:08;;;;;;;4.78;2.80;;;;;;;10.86;65.79;100430.06;4253372;33;33877;-85
2022/12/26 09:36:36;;;;;;;2.62;2.03;;;;;;;11.06;65.57;100424.09;4249688;33;34261;-85
2022/12/26 09:39:06;;;;;;;6.00;2.62;;;;;;;11.15;64.84;100423.75;4254638;33;32815;-85
2022/12/26 09:41:37;;;;;;;4.20;2.80;;;;;;;10.83;66.54;100432.84;4255008;33;32201;-85
2022/12/26 09:44:33;;;;;;;4.43;1.62;;;;;;;10.97;67.16;100413.87;4266717;33;33747;-85
2022/12/26 09:47:15;;;;;;;4.22;3.92;;;;;;;11.41;65.71;100414.88;4266122;33;34301;-84
2022/12/26 09:49:52;;;;;;;3.40;3.20;;;;;;;11.28;66.36;100416.25;4250519;33;31831;-85
2022/12/26 09:52:33;;;;;;;3.78;3.53;;;;;;;11.61;65.42;100423.84;4254277;33;32662;-85
2022/12/26 09:55:05;;;;;;;3.62;3.30;;;;;;;11.60;64.89;100419.47;4254597;33;34764;-85
2022/12/26 09:57:39;;;;;;;4.85;2.45;;;;;;;11.93;63.22;100410.28;4255158;33;34134;-85
2022/12/26 10:00:16;;;;;;;7.47;3.72;;;;;;;11.63;64.01;100419.34;4251401;33;32141;-85
2022/12/26 10:02:50;;;;;;;6.95;3.50;;;;;;;12.23;62.50;100420.56;4265664;33;33994;-85
2022/12/26 10:05:25;;;;;;;5.45;3.85;;;;;;;12.35;62.57;100411.25;4248274;33;33782;-85
2022/12/26 10:07:57;;;;;;;4.53;3.78;;;;;;;12.86;59.88;100405.50;4264311;33;33754;-85
2022/12/26 10:10:35;;;;;;;5.53;4.70;;;;;;;12.74;59.95;100408.72;4264316;33;32986;-85
2022/12/26 10:13:14;;;;;;;2.92;2.72;;;;;;;12.84;59.74;100406.53;4267657;33;33901;-84
2022/12/26 10:15:45;;;;;;;5.75;3.00;;;;;;;12.59;60.69;100404.06;4266309;33;33906;-85
2022/12/26 10:18:25;;;;;;;8.73;4.05;;;;;;;12.49;60.79;100404.47;4256254;33;32401;-85
2022/12/26 10:21:10;;;;;;;10.13;5.35;;;;;;;12.40;61.53;100399.53;4254398;33;31960;-85
2022/12/26 10:23:42;;;;;;;4.18;1.87;;;;;;;12.67;61.00;100394.00;4255654;33;32497;-85
2022/12/26 10:26:32;;;;;;;2.35;2.25;;;;;;;13.14;59.41;100391.91;4255253;33;32605;-85
2022/12/26 10:29:27;;;;;;;5.15;3.35;;;;;;;13.04;60.11;100383.50;4254626;33;32618;-84
2022/12/26 10:31:58;;;;;;;3.78;3.20;;;;;;;13.07;60.40;100377.22;4241118;33;32483;-85
2022/12/26 10:34:39;;;;;;;3.17;2.17;;;;;;;12.85;61.59;100373.78;4254273;33;32169;-85
2022/12/26 10:37:30;;;;;;;2.90;2.70;;;;;;;13.02;62.18;100364.16;4253858;33;32830;-85
2022/12/26 10:40:01;;;;;;;3.30;3.05;;;;;;;13.02;61.56;100364.16;4252398;33;34146;-85
2022/12/26 10:42:41;;;;;;;2.70;2.55;;;;;;;13.33;61.24;100357.50;4269588;33;33617;-85
2022/12/26 10:45:18;;;;;;;2.95;2.70;;;;;;;13.40;60.79;100353.62;4264968;33;33485;-85
2022/12/26 10:47:47;;;;;;;9.88;4.75;;;;;;;13.87;59.06;100358.50;4254152;33;33892;-85
2022/12/26 10:50:19;;;;;;;3.22;2.62;;;;;;;13.90;58.16;100362.78;4253392;33;32554;-85
2022/12/26 10:52:55;;;;;;;11.75;4.07;;;;;;;13.98;58.99;100347.34;4265803;33;33398;-85
2022/12/26 10:55:28;;;;;;;3.97;2.40;;;;;;;14.18;57.23;100339.22;4265102;33;34709;-85
2022/12/26 10:58:18;;;;;;;5.43;3.78;;;;;;;14.21;58.15;100343.56;4254210;33;34201;-85
2022/12/26 11:00:46;;;;;;;4.55;4.15;;;;;;;13.55;59.83;100333.47;4255173;33;34241;-85
2022/12/26 11:03:17;;;;;;;6.07;4.43;;;;;;;14.25;57.08;100335.34;4264764;33;34284;-85
2022/12/26 11:05:47;;;;;;;41.40;5.18;;;;;;;13.69;59.74;100323.06;4253091;33;33232;-85
2022/12/26 11:08:50;;;;;;;7.03;3.03;;;;;;;14.29;57.21;100317.44;4255293;33;33935;-85
2022/12/26 11:11:44;;;;;;;8.25;4.32;;;;;;;14.05;58.27;100319.53;4255161;33;32444;-85
2022/12/26 11:14:37;;;;;;;7.93;1.80;;;;;;;14.35;56.95;100306.53;4254441;33;33049;-85
2022/12/26 11:17:12;;;;;;;4.85;3.10;;;;;;;13.92;59.33;100302.50;4252738;33;33003;-85
2022/12/26 11:19:42;;;;;;;3.00;2.72;;;;;;;13.82;59.45;100299.47;4266053;33;33844;-85
2022/12/26 11:22:19;;;;;;;7.37;4.00;;;;;;;14.12;58.33;100298.88;4250588;33;34749;-85
2022/12/26 11:25:23;;;;;;;3.08;2.78;;;;;;;14.22;57.87;100300.12;4265390;33;33461;-85
2022/12/26 11:27:53;;;;;;;3.62;3.22;;;;;;;14.37;56.90;100283.38;4252593;33;32948;-85
2022/12/26 11:30:30;;;;;;;3.20;2.47;;;;;;;14.23;57.39;100292.06;4256020;33;32530;-85
2022/12/26 11:33:16;;;;;;;7.80;3.37;;;;;;;14.60;55.88;100301.69;4251083;33;34321;-85
2022/12/26 11:35:51;;;;;;;4.55;2.80;;;;;;;14.26;56.83;100297.22;4267127;33;33743;-85
2022/12/26 11:38:35;;;;;;;0.65;0.65;;;;;;;13.94;58.48;100304.16;4253808;33;33740;-85
2022/12/26 11:41:30;;;;;;;;;;;;;;;13.80;57.67;100307.47;4257371;33;33698;-85
2022/12/26 11:44:21;;;;;;;7.95;5.35;;;;;;;14.45;56.13;100307.75;4248499;33;32471;-85
2022/12/26 11:47:04;;;;;;;15.10;3.70;;;;;;;14.65;55.60;100297.94;4255115;33;34235;-85
2022/12/26 11:49:35;;;;;;;2.25;2.12;;;;;;;14.08;57.52;100293.69;4265298;33;33251;-85
2022/12/26 11:52:36;;;;;;;10.70;4.28;;;;;;;13.93;58.00;100298.91;4256946;33;34794;-85
2022/12/26 11:55:22;;;;;;;3.83;3.53;;;;;;;13.98;57.15;100302.19;4264569;33;34373;-85
2022/12/26 11:58:05;;;;;;;5.87;5.35;;;;;;;14.16;56.96;100290.66;4256037;33;33398;-85
2022/12/26 12:00:41;;;;;;;4.35;3.95;;;;;;;13.84;58.04;100300.22;4255517;33;32956;-85
2022/12/26 12:03:12;;;;;;;6.82;4.00;;;;;;;13.30;59.88;100301.97;4257035;33;32262;-85
2022/12/26 12:06:00;;;;;;;3.75;3.45;;;;;;;13.60;59.18;100286.34;4248799;33;33538;-85
2022/12/26 12:08:55;;;;;;;3.30;2.15;;;;;;;13.42;60.36;100300.50;4260442;33;31617;-85
2022/12/26 12:11:55;;;;;;;4.62;3.80;;;;;;;13.42;60.37;100304.00;4249695;33;34162;-85
2022/12/26 12:14:33;;;;;;;6.55;4.22;;;;;;;13.22;60.91;100296.12;4258221;33;34058;-85
2022/12/26 12:17:07;;;;;;;3.22;2.30;;;;;;;13.44;60.30;100293.34;4266614;33;32688;-85
2022/12/26 12:19:46;;;;;;;3.15;2.85;;;;;;;13.69;59.42;100285.06;4267436;33;33548;-85
2022/12/26 12:22:28;;;;;;;3.22;2.62;;;;;;;13.76;59.48;100275.84;4266990;33;32797;-85
2022/12/26 12:25:15;;;;;;;3.25;2.87;;;;;;;13.90;59.05;100284.00;4264971;33;34457;-85
2022/12/26 12:27:52;;;;;;;4.03;2.65;;;;;;;13.89;59.21;100287.59;4262682;33;33558;-85
2022/12/26 12:30:33;;;;;;;2.50;2.30;;;;;;;14.11;58.24;100289.19;4256507;33;32982;-86
2022/12/26 12:33:17;;;;;;;3.22;2.58;;;;;;;13.95;59.04;100276.66;4266145;33;33894;-85
2022/12/26 12:36:12;;;;;;;3.83;3.53;;;;;;;14.21;57.82;100274.50;4256110;33;32676;-85
2022/12/26 12:38:52;;;;;;;4.18;2.65;;;;;;;14.16;57.87;100289.81;4250086;33;33696;-85
2022/12/26 12:42:04;;;;;;;3.37;3.08;;;;;;;14.17;57.71;100278.25;4265973;33;34281;-85
2022/12/26 12:44:59;;;;;;;1.58;1.48;;;;;;;14.56;56.83;100284.16;4266926;33;33610;-85
2022/12/26 12:48:00;;;;;;;2.55;1.67;;;;;;;14.56;57.32;100283.31;4268130;33;32854;-85
2022/12/26 12:50:42;;;;;;;4.10;2.90;;;;;;;14.79;56.26;100268.81;4263987;33;34730;-85
2022/12/26 12:53:31;;;;;;;3.62;3.22;;;;;;;14.76;56.06;100261.00;4257653;33;35222;-85
2022/12/26 12:56:06;;;;;;;4.12;3.83;;;;;;;14.72;56.41;100257.66;4268190;33;32402;-85
2022/12/26 12:58:54;;;;;;;4.85;3.58;;;;;;;14.62;56.90;100260.87;4254632;33;34297;-85
2022/12/26 13:01:27;;;;;;;4.95;4.18;;;;;;;14.68;55.99;100257.91;4266998;33;32702;-85
2022/12/26 13:04:05;;;;;;;3.78;3.42;;;;;;;14.43;56.48;100261.84;4267871;33;34093;-85
2022/12/26 13:06:52;;;;;;;5.95;2.87;;;;;;;14.43;56.74;100253.87;4256981;33;33795;-85
2022/12/26 13:09:24;;;;;;;5.22;3.75;;;;;;;14.26;57.53;100253.87;4250352;33;33349;-85
2022/12/26 13:11:59;;;;;;;4.97;4.27;;;;;;;14.39;57.41;100252.28;4255219;33;34061;-85
2022/12/26 13:14:35;;;;;;;3.55;3.25;;;;;;;14.21;57.32;100247.94;4265577;33;33580;-85
2022/12/26 13:17:24;;;;;;;3.70;2.58;;;;;;;14.16;57.84;100253.47;4256398;33;36293;-85
2022/12/26 13:20:19;;;;;;;3.05;1.98;;;;;;;14.18;58.33;100256.06;4267660;33;32459;-86
2022/12/26 13:25:48;;;;;;;4.32;3.28;;;;;;;13.93;59.87;100270.56;4256288;33;33099;-85
2022/12/26 13:28:20;;;;;;;3.58;3.28;;;;;;;14.24;57.07;100258.38;4256884;33;34360;-85
2022/12/26 13:30:54;;;;;;;;;;;;;;;14.08;57.59;100269.78;4252566;33;33432;-85
2022/12/26 13:33:21;;;;;;;4.85;4.10;;;;;;;13.96;58.44;100265.13;4264494;33;34161;-85
2022/12/26 13:36:01;;;;;;;6.80;4.20;;;;;;;13.95;58.92;100260.72;4253560;33;33249;-85
2022/12/26 13:38:57;;;;;;;4.70;3.00;;;;;;;14.23;57.83;100264.63;4267357;33;34842;-85
2022/12/26 13:44:17;;;;;;;6.35;3.25;;;;;;;14.02;58.24;100264.81;4256827;33;34194;-85
2022/12/26 13:46:45;;;;;;;3.62;3.25;;;;;;;13.83;58.74;100267.53;4257486;33;32853;-85
2022/12/26 13:49:35;;;;;;;4.07;3.50;;;;;;;14.23;57.37;100269.94;4262381;33;34369;-85
2022/12/26 13:52:09;;;;;;;7.65;4.47;;;;;;;13.96;58.23;100273.09;4264579;33;33868;-85
2022/12/26 13:55:05;;;;;;;4.35;3.42;;;;;;;13.61;59.37;100271.28;4266635;33;34138;-85
2022/12/26 13:57:33;;;;;;;4.30;4.00;;;;;;;13.70;59.25;100273.50;4267134;33;33264;-85
2022/12/26 14:00:03;;;;;;;2.10;2.00;;;;;;;13.43;60.06;100268.59;4255692;33;32822;-85
2022/12/26 14:03:02;;;;;;;4.07;3.03;;;;;;;13.61;60.01;100271.28;4269412;33;33325;-85
2022/12/26 14:06:11;;;;;;;2.55;2.40;;;;;;;13.52;60.57;100278.75;4254825;33;33880;-85
2022/12/26 14:08:47;;;;;;;8.13;4.20;;;;;;;13.56;60.46;100275.03;4254575;33;32133;-85
2022/12/26 14:11:34;;;;;;;3.10;2.80;;;;;;;13.41;60.74;100289.03;4258989;33;34715;-85
2022/12/26 14:14:24;;;;;;;5.80;3.55;;;;;;;13.45;60.00;100282.66;4266999;33;33916;-85
2022/12/26 14:17:18;;;;;;;3.45;2.42;;;;;;;13.45;59.67;100282.66;4252921;33;33024;-85